sensor_id;sensor_type;location;lat;lon;timestamp;temperature;humidity
8565;DHT22;4320;51.498;6.556;2023-04-25T00:01:04;7.90;99.90
8565;DHT22;4320;51.498;6.556;2023-04-25T00:03:34;7.90;99.90
8565;DHT22;4320;51.498;6.556;2023-04-25T00:06:00;7.90;99.90
8565;DHT22;4320;51.498;6.556;2023-04-25T00:08:28;7.70;99.90
8565;DHT22;4320;51.498;6.556;2023-04-25T00:10:54;7.80;99.90
8565;DHT22;4320;51.498;6.556;2023-04-25T00:13:19;7.80;99.90
8565;DHT22;4320;51.498;6.556;2023-04-25T00:15:45;7.80;99.90
8565;DHT22;4320;51.498;6.556;2023-04-25T00:18:11;7.90;99.90
8565;DHT22;4320;51.498;6.556;2023-04-25T00:20:37;7.90;99.90
8565;DHT22;4320;51.498;6.556;2023-04-25T00:23:03;7.90;99.90
8565;DHT22;4320;51.498;6.556;2023-04-25T00:25:28;7.90;99.90
8565;DHT22;4320;51.498;6.556;2023-04-25T00:27:55;7.90;99.90
8565;DHT22;4320;51.498;6.556;2023-04-25T00:30:20;7.90;99.90
8565;DHT22;4320;51.498;6.556;2023-04-25T00:32:46;7.80;99.90
8565;DHT22;4320;51.498;6.556;2023-04-25T00:35:12;7.80;99.90
8565;DHT22;4320;51.498;6.556;2023-04-25T00:37:37;7.80;99.90
8565;DHT22;4320;51.498;6.556;2023-04-25T00:40:05;7.90;99.90
8565;DHT22;4320;51.498;6.556;2023-04-25T00:42:31;7.90;99.90
8565;DHT22;4320;51.498;6.556;2023-04-25T00:44:58;8.00;99.90
8565;DHT22;4320;51.498;6.556;2023-04-25T00:47:25;7.90;99.90
8565;DHT22;4320;51.498;6.556;2023-04-25T00:49:51;8.00;99.90
8565;DHT22;4320;51.498;6.556;2023-04-25T00:52:19;8.00;99.90
8565;DHT22;4320;51.498;6.556;2023-04-25T00:54:44;8.00;99.90
8565;DHT22;4320;51.498;6.556;2023-04-25T00:57:10;8.00;99.90
8565;DHT22;4320;51.498;6.556;2023-04-25T00:59:36;8.00;99.90
8565;DHT22;4320;51.498;6.556;2023-04-25T01:02:03;8.10;99.90
8565;DHT22;4320;51.498;6.556;2023-04-25T01:04:30;8.10;99.90
8565;DHT22;4320;51.498;6.556;2023-04-25T01:06:55;8.00;99.90
8565;DHT22;4320;51.498;6.556;2023-04-25T01:09:22;8.10;99.90
8565;DHT22;4320;51.498;6.556;2023-04-25T01:11:49;8.00;99.90
8565;DHT22;4320;51.498;6.556;2023-04-25T01:14:14;8.00;99.90
8565;DHT22;4320;51.498;6.556;2023-04-25T01:16:40;8.10;99.90
8565;DHT22;4320;51.498;6.556;2023-04-25T01:19:10;8.00;99.90
8565;DHT22;4320;51.498;6.556;2023-04-25T01:21:39;8.00;99.90
8565;DHT22;4320;51.498;6.556;2023-04-25T01:24:05;8.10;99.90
8565;DHT22;4320;51.498;6.556;2023-04-25T01:26:32;8.10;99.90
8565;DHT22;4320;51.498;6.556;2023-04-25T01:28:59;8.10;99.90
8565;DHT22;4320;51.498;6.556;2023-04-25T01:31:25;8.10;99.90
8565;DHT22;4320;51.498;6.556;2023-04-25T01:33:53;8.10;99.90
8565;DHT22;4320;51.498;6.556;2023-04-25T01:36:19;8.10;99.90
8565;DHT22;4320;51.498;6.556;2023-04-25T01:38:45;8.10;99.90
8565;DHT22;4320;51.498;6.556;2023-04-25T01:41:13;8.10;99.90
8565;DHT22;4320;51.498;6.556;2023-04-25T01:43:39;8.00;99.90
8565;DHT22;4320;51.498;6.556;2023-04-25T01:46:05;8.00;99.90
8565;DHT22;4320;51.498;6.556;2023-04-25T01:48:31;8.10;99.90
8565;DHT22;4320;51.498;6.556;2023-04-25T01:50:57;8.10;99.90
8565;DHT22;4320;51.498;6.556;2023-04-25T01:53:23;8.00;99.90
8565;DHT22;4320;51.498;6.556;2023-04-25T01:55:49;8.00;99.90
8565;DHT22;4320;51.498;6.556;2023-04-25T01:58:14;7.90;99.90
8565;DHT22;4320;51.498;6.556;2023-04-25T02:00:40;8.00;99.90
8565;DHT22;4320;51.498;6.556;2023-04-25T02:03:07;8.00;99.90
8565;DHT22;4320;51.498;6.556;2023-04-25T02:05:37;8.00;99.90
8565;DHT22;4320;51.498;6.556;2023-04-25T02:08:05;8.10;99.90
8565;DHT22;4320;51.498;6.556;2023-04-25T02:10:31;8.10;99.90
8565;DHT22;4320;51.498;6.556;2023-04-25T02:12:57;8.20;99.90
8565;DHT22;4320;51.498;6.556;2023-04-25T02:15:23;8.20;99.90
8565;DHT22;4320;51.498;6.556;2023-04-25T02:17:49;8.20;99.90
8565;DHT22;4320;51.498;6.556;2023-04-25T02:20:15;8.00;99.90
8565;DHT22;4320;51.498;6.556;2023-04-25T02:22:43;7.90;99.90
8565;DHT22;4320;51.498;6.556;2023-04-25T02:25:09;7.90;99.90
8565;DHT22;4320;51.498;6.556;2023-04-25T02:27:35;8.00;99.90
8565;DHT22;4320;51.498;6.556;2023-04-25T02:30:01;8.00;99.90
8565;DHT22;4320;51.498;6.556;2023-04-25T02:32:26;8.00;99.90
8565;DHT22;4320;51.498;6.556;2023-04-25T02:34:52;8.00;99.90
8565;DHT22;4320;51.498;6.556;2023-04-25T02:37:18;8.00;99.90
8565;DHT22;4320;51.498;6.556;2023-04-25T02:39:44;8.10;99.90
8565;DHT22;4320;51.498;6.556;2023-04-25T02:42:10;8.10;99.90
8565;DHT22;4320;51.498;6.556;2023-04-25T02:44:36;8.10;99.90
8565;DHT22;4320;51.498;6.556;2023-04-25T02:47:01;8.10;99.90
8565;DHT22;4320;51.498;6.556;2023-04-25T02:49:27;8.10;99.90
8565;DHT22;4320;51.498;6.556;2023-04-25T02:51:52;8.10;99.90
8565;DHT22;4320;51.498;6.556;2023-04-25T02:54:18;8.20;99.90
8565;DHT22;4320;51.498;6.556;2023-04-25T02:56:44;8.20;99.90
8565;DHT22;4320;51.498;6.556;2023-04-25T02:59:09;8.20;99.90
8565;DHT22;4320;51.498;6.556;2023-04-25T03:01:35;8.00;99.90
8565;DHT22;4320;51.498;6.556;2023-04-25T03:04:01;8.10;99.90
8565;DHT22;4320;51.498;6.556;2023-04-25T03:06:26;8.00;99.90
8565;DHT22;4320;51.498;6.556;2023-04-25T03:08:52;8.00;99.90
8565;DHT22;4320;51.498;6.556;2023-04-25T03:11:17;8.10;99.90
8565;DHT22;4320;51.498;6.556;2023-04-25T03:13:45;8.10;99.90
8565;DHT22;4320;51.498;6.556;2023-04-25T03:16:11;8.00;99.90
8565;DHT22;4320;51.498;6.556;2023-04-25T03:18:36;8.00;99.90
8565;DHT22;4320;51.498;6.556;2023-04-25T03:21:02;7.90;99.90
8565;DHT22;4320;51.498;6.556;2023-04-25T03:23:28;7.90;99.90
8565;DHT22;4320;51.498;6.556;2023-04-25T03:25:53;7.80;99.90
8565;DHT22;4320;51.498;6.556;2023-04-25T03:28:19;7.80;99.90
8565;DHT22;4320;51.498;6.556;2023-04-25T03:30:45;7.80;99.90
8565;DHT22;4320;51.498;6.556;2023-04-25T03:33:11;7.80;99.90
8565;DHT22;4320;51.498;6.556;2023-04-25T03:35:36;7.80;99.90
8565;DHT22;4320;51.498;6.556;2023-04-25T03:38:02;7.90;99.90
8565;DHT22;4320;51.498;6.556;2023-04-25T03:40:27;7.80;99.90
8565;DHT22;4320;51.498;6.556;2023-04-25T03:42:53;7.70;99.90
8565;DHT22;4320;51.498;6.556;2023-04-25T03:45:19;7.70;99.90
8565;DHT22;4320;51.498;6.556;2023-04-25T03:47:44;7.70;99.90
8565;DHT22;4320;51.498;6.556;2023-04-25T03:50:10;7.60;99.90
8565;DHT22;4320;51.498;6.556;2023-04-25T03:52:36;7.60;99.90
8565;DHT22;4320;51.498;6.556;2023-04-25T03:55:01;7.70;99.90
8565;DHT22;4320;51.498;6.556;2023-04-25T03:57:27;7.60;99.90
8565;DHT22;4320;51.498;6.556;2023-04-25T03:59:53;7.50;99.90
8565;DHT22;4320;51.498;6.556;2023-04-25T04:02:18;7.50;99.90
8565;DHT22;4320;51.498;6.556;2023-04-25T04:04:44;7.40;99.90
8565;DHT22;4320;51.498;6.556;2023-04-25T04:07:10;7.40;99.90
8565;DHT22;4320;51.498;6.556;2023-04-25T04:09:36;7.30;99.90
8565;DHT22;4320;51.498;6.556;2023-04-25T04:12:01;7.30;99.90
8565;DHT22;4320;51.498;6.556;2023-04-25T04:14:28;7.30;99.90
8565;DHT22;4320;51.498;6.556;2023-04-25T04:16:54;7.30;99.90
8565;DHT22;4320;51.498;6.556;2023-04-25T04:19:19;7.20;99.90
8565;DHT22;4320;51.498;6.556;2023-04-25T04:21:45;7.20;99.90
8565;DHT22;4320;51.498;6.556;2023-04-25T04:24:11;7.20;99.90
8565;DHT22;4320;51.498;6.556;2023-04-25T04:26:36;7.20;99.90
8565;DHT22;4320;51.498;6.556;2023-04-25T04:29:04;7.20;99.90
8565;DHT22;4320;51.498;6.556;2023-04-25T04:31:29;7.10;99.90
8565;DHT22;4320;51.498;6.556;2023-04-25T04:33:55;7.10;99.90
8565;DHT22;4320;51.498;6.556;2023-04-25T04:36:21;7.10;99.90
8565;DHT22;4320;51.498;6.556;2023-04-25T04:38:48;7.00;99.90
8565;DHT22;4320;51.498;6.556;2023-04-25T04:41:14;7.10;99.90
8565;DHT22;4320;51.498;6.556;2023-04-25T04:43:39;7.00;99.90
8565;DHT22;4320;51.498;6.556;2023-04-25T04:46:05;7.00;99.90
8565;DHT22;4320;51.498;6.556;2023-04-25T04:48:32;7.00;99.90
8565;DHT22;4320;51.498;6.556;2023-04-25T04:51:00;7.00;99.90
8565;DHT22;4320;51.498;6.556;2023-04-25T04:53:26;7.10;99.90
8565;DHT22;4320;51.498;6.556;2023-04-25T04:55:52;7.10;99.90
8565;DHT22;4320;51.498;6.556;2023-04-25T04:58:18;7.10;99.90
8565;DHT22;4320;51.498;6.556;2023-04-25T05:00:44;7.10;99.90
8565;DHT22;4320;51.498;6.556;2023-04-25T05:03:10;7.10;99.90
8565;DHT22;4320;51.498;6.556;2023-04-25T05:05:36;7.10;99.90
8565;DHT22;4320;51.498;6.556;2023-04-25T05:08:05;7.10;99.90
8565;DHT22;4320;51.498;6.556;2023-04-25T05:10:31;7.10;99.90
8565;DHT22;4320;51.498;6.556;2023-04-25T05:12:57;7.20;99.90
8565;DHT22;4320;51.498;6.556;2023-04-25T05:15:22;7.20;99.90
8565;DHT22;4320;51.498;6.556;2023-04-25T05:17:48;7.30;99.90
8565;DHT22;4320;51.498;6.556;2023-04-25T05:20:14;7.30;99.90
8565;DHT22;4320;51.498;6.556;2023-04-25T05:22:39;7.40;99.90
8565;DHT22;4320;51.498;6.556;2023-04-25T05:25:07;7.50;99.90
8565;DHT22;4320;51.498;6.556;2023-04-25T05:27:33;7.50;99.90
8565;DHT22;4320;51.498;6.556;2023-04-25T05:29:59;7.50;99.90
8565;DHT22;4320;51.498;6.556;2023-04-25T05:32:24;7.60;99.90
8565;DHT22;4320;51.498;6.556;2023-04-25T05:34:50;7.70;99.90
8565;DHT22;4320;51.498;6.556;2023-04-25T05:37:17;7.70;99.90
8565;DHT22;4320;51.498;6.556;2023-04-25T05:39:43;7.90;99.90
8565;DHT22;4320;51.498;6.556;2023-04-25T05:42:08;7.90;99.90
8565;DHT22;4320;51.498;6.556;2023-04-25T05:44:34;7.90;99.90
8565;DHT22;4320;51.498;6.556;2023-04-25T05:46:59;8.00;99.90
8565;DHT22;4320;51.498;6.556;2023-04-25T05:49:25;8.10;99.90
8565;DHT22;4320;51.498;6.556;2023-04-25T05:51:51;8.20;99.90
8565;DHT22;4320;51.498;6.556;2023-04-25T05:54:16;8.20;99.90
8565;DHT22;4320;51.498;6.556;2023-04-25T05:56:42;8.30;99.90
8565;DHT22;4320;51.498;6.556;2023-04-25T05:59:07;8.30;99.90
8565;DHT22;4320;51.498;6.556;2023-04-25T06:01:33;8.30;99.90
8565;DHT22;4320;51.498;6.556;2023-04-25T06:03:59;8.30;99.90
8565;DHT22;4320;51.498;6.556;2023-04-25T06:06:24;8.30;99.90
8565;DHT22;4320;51.498;6.556;2023-04-25T06:08:52;8.30;99.90
8565;DHT22;4320;51.498;6.556;2023-04-25T06:11:17;8.50;99.90
8565;DHT22;4320;51.498;6.556;2023-04-25T06:13:43;8.70;99.90
8565;DHT22;4320;51.498;6.556;2023-04-25T06:16:09;9.10;99.90
8565;DHT22;4320;51.498;6.556;2023-04-25T06:18:34;9.30;99.90
8565;DHT22;4320;51.498;6.556;2023-04-25T06:21:00;9.50;99.90
8565;DHT22;4320;51.498;6.556;2023-04-25T06:23:26;10.10;99.90
8565;DHT22;4320;51.498;6.556;2023-04-25T06:25:51;10.50;99.90
8565;DHT22;4320;51.498;6.556;2023-04-25T06:28:17;10.30;99.90
8565;DHT22;4320;51.498;6.556;2023-04-25T06:30:43;10.00;99.90
8565;DHT22;4320;51.498;6.556;2023-04-25T06:33:08;9.90;99.90
8565;DHT22;4320;51.498;6.556;2023-04-25T06:35:34;10.50;99.90
8565;DHT22;4320;51.498;6.556;2023-04-25T06:38:00;11.40;99.90
8565;DHT22;4320;51.498;6.556;2023-04-25T06:40:26;12.40;99.90
8565;DHT22;4320;51.498;6.556;2023-04-25T06:42:51;13.00;94.90
8565;DHT22;4320;51.498;6.556;2023-04-25T06:45:17;13.30;84.50
8565;DHT22;4320;51.498;6.556;2023-04-25T06:47:43;13.80;71.30
8565;DHT22;4320;51.498;6.556;2023-04-25T06:50:08;14.20;58.20
8565;DHT22;4320;51.498;6.556;2023-04-25T06:52:34;14.70;43.70
8565;DHT22;4320;51.498;6.556;2023-04-25T06:55:00;14.80;31.10
8565;DHT22;4320;51.498;6.556;2023-04-25T06:57:25;14.30;20.90
8565;DHT22;4320;51.498;6.556;2023-04-25T06:59:51;13.40;14.30
8565;DHT22;4320;51.498;6.556;2023-04-25T07:02:16;12.60;14.80
8565;DHT22;4320;51.498;6.556;2023-04-25T07:04:42;12.30;13.70
8565;DHT22;4320;51.498;6.556;2023-04-25T07:07:08;12.20;15.00
8565;DHT22;4320;51.498;6.556;2023-04-25T07:09:33;12.20;12.90
8565;DHT22;4320;51.498;6.556;2023-04-25T07:12:00;12.10;10.00
8565;DHT22;4320;51.498;6.556;2023-04-25T07:14:27;12.90;9.90
8565;DHT22;4320;51.498;6.556;2023-04-25T07:16:53;13.90;4.90
8565;DHT22;4320;51.498;6.556;2023-04-25T07:19:18;14.90;1.10
8565;DHT22;4320;51.498;6.556;2023-04-25T07:21:44;15.50;1.40
8565;DHT22;4320;51.498;6.556;2023-04-25T07:24:09;15.90;1.00
8565;DHT22;4320;51.498;6.556;2023-04-25T07:26:35;16.30;1.00
8565;DHT22;4320;51.498;6.556;2023-04-25T07:29:01;16.30;1.00
8565;DHT22;4320;51.498;6.556;2023-04-25T07:31:26;16.60;1.00
8565;DHT22;4320;51.498;6.556;2023-04-25T07:33:52;16.80;1.00
8565;DHT22;4320;51.498;6.556;2023-04-25T07:36:18;17.10;1.00
8565;DHT22;4320;51.498;6.556;2023-04-25T07:38:43;17.50;1.00
8565;DHT22;4320;51.498;6.556;2023-04-25T07:41:09;17.80;1.00
8565;DHT22;4320;51.498;6.556;2023-04-25T07:43:34;17.80;1.00
8565;DHT22;4320;51.498;6.556;2023-04-25T07:46:00;18.00;1.00
8565;DHT22;4320;51.498;6.556;2023-04-25T07:48:26;17.90;1.00
8565;DHT22;4320;51.498;6.556;2023-04-25T07:50:51;17.50;1.00
8565;DHT22;4320;51.498;6.556;2023-04-25T07:53:17;17.20;1.00
8565;DHT22;4320;51.498;6.556;2023-04-25T07:55:43;16.60;1.00
8565;DHT22;4320;51.498;6.556;2023-04-25T07:58:10;16.00;1.00
8565;DHT22;4320;51.498;6.556;2023-04-25T08:00:36;15.70;1.00
8565;DHT22;4320;51.498;6.556;2023-04-25T08:03:02;15.50;1.00
8565;DHT22;4320;51.498;6.556;2023-04-25T08:05:28;15.10;1.00
8565;DHT22;4320;51.498;6.556;2023-04-25T08:07:54;15.00;1.00
8565;DHT22;4320;51.498;6.556;2023-04-25T08:10:20;14.80;1.00
8565;DHT22;4320;51.498;6.556;2023-04-25T08:12:46;14.60;1.00
8565;DHT22;4320;51.498;6.556;2023-04-25T08:15:11;14.20;1.00
8565;DHT22;4320;51.498;6.556;2023-04-25T08:17:39;13.90;1.00
8565;DHT22;4320;51.498;6.556;2023-04-25T08:20:05;13.80;1.00
8565;DHT22;4320;51.498;6.556;2023-04-25T08:22:31;13.70;1.00
8565;DHT22;4320;51.498;6.556;2023-04-25T08:24:57;13.30;1.00
8565;DHT22;4320;51.498;6.556;2023-04-25T08:27:22;13.00;1.00
8565;DHT22;4320;51.498;6.556;2023-04-25T08:29:49;12.90;1.00
8565;DHT22;4320;51.498;6.556;2023-04-25T08:32:15;13.20;1.00
8565;DHT22;4320;51.498;6.556;2023-04-25T08:34:40;13.50;1.00
8565;DHT22;4320;51.498;6.556;2023-04-25T08:37:08;14.10;1.00
8565;DHT22;4320;51.498;6.556;2023-04-25T08:39:35;14.70;1.00
8565;DHT22;4320;51.498;6.556;2023-04-25T08:42:02;15.00;1.00
8565;DHT22;4320;51.498;6.556;2023-04-25T08:44:33;15.60;1.00
8565;DHT22;4320;51.498;6.556;2023-04-25T08:47:04;15.80;1.00
8565;DHT22;4320;51.498;6.556;2023-04-25T08:49:33;15.50;1.00
8565;DHT22;4320;51.498;6.556;2023-04-25T08:52:02;15.50;1.00
8565;DHT22;4320;51.498;6.556;2023-04-25T08:54:30;15.40;1.00
8565;DHT22;4320;51.498;6.556;2023-04-25T08:56:57;15.30;1.00
8565;DHT22;4320;51.498;6.556;2023-04-25T08:59:27;15.30;1.00
8565;DHT22;4320;51.498;6.556;2023-04-25T09:01:53;15.30;1.00
8565;DHT22;4320;51.498;6.556;2023-04-25T09:04:19;15.50;1.00
8565;DHT22;4320;51.498;6.556;2023-04-25T09:06:46;15.50;1.00
8565;DHT22;4320;51.498;6.556;2023-04-25T09:09:11;15.20;1.00
8565;DHT22;4320;51.498;6.556;2023-04-25T09:11:37;14.90;1.00
8565;DHT22;4320;51.498;6.556;2023-04-25T09:14:17;14.60;1.00
8565;DHT22;4320;51.498;6.556;2023-04-25T09:17:12;14.10;1.00
8565;DHT22;4320;51.498;6.556;2023-04-25T09:19:39;13.60;1.00
8565;DHT22;4320;51.498;6.556;2023-04-25T09:22:06;13.30;1.00
8565;DHT22;4320;51.498;6.556;2023-04-25T09:24:39;13.00;1.00
8565;DHT22;4320;51.498;6.556;2023-04-25T09:27:09;13.10;1.00
8565;DHT22;4320;51.498;6.556;2023-04-25T09:29:39;13.10;1.00
8565;DHT22;4320;51.498;6.556;2023-04-25T09:32:17;13.20;1.00
8565;DHT22;4320;51.498;6.556;2023-04-25T09:34:49;13.30;1.00
8565;DHT22;4320;51.498;6.556;2023-04-25T09:37:42;13.30;1.00
8565;DHT22;4320;51.498;6.556;2023-04-25T09:40:08;13.60;1.00
8565;DHT22;4320;51.498;6.556;2023-04-25T09:42:35;14.10;1.00
8565;DHT22;4320;51.498;6.556;2023-04-25T09:45:01;14.70;1.00
8565;DHT22;4320;51.498;6.556;2023-04-25T09:47:29;15.00;1.00
8565;DHT22;4320;51.498;6.556;2023-04-25T09:49:55;14.90;1.00
8565;DHT22;4320;51.498;6.556;2023-04-25T09:52:24;14.60;1.00
8565;DHT22;4320;51.498;6.556;2023-04-25T09:54:51;14.10;1.00
8565;DHT22;4320;51.498;6.556;2023-04-25T09:57:22;13.90;1.00
8565;DHT22;4320;51.498;6.556;2023-04-25T09:59:54;13.60;1.00
8565;DHT22;4320;51.498;6.556;2023-04-25T10:02:25;13.30;1.00
8565;DHT22;4320;51.498;6.556;2023-04-25T10:04:53;13.40;1.00
8565;DHT22;4320;51.498;6.556;2023-04-25T10:07:22;13.80;1.00
8565;DHT22;4320;51.498;6.556;2023-04-25T10:10:00;14.20;1.00
8565;DHT22;4320;51.498;6.556;2023-04-25T10:12:28;14.10;1.00
8565;DHT22;4320;51.498;6.556;2023-04-25T10:14:54;14.80;1.00
8565;DHT22;4320;51.498;6.556;2023-04-25T10:17:20;15.60;1.00
8565;DHT22;4320;51.498;6.556;2023-04-25T10:19:47;15.40;1.00
8565;DHT22;4320;51.498;6.556;2023-04-25T10:22:20;15.40;1.00
8565;DHT22;4320;51.498;6.556;2023-04-25T10:24:50;15.30;1.00
8565;DHT22;4320;51.498;6.556;2023-04-25T10:27:16;15.00;1.00
8565;DHT22;4320;51.498;6.556;2023-04-25T10:29:42;15.40;1.00
8565;DHT22;4320;51.498;6.556;2023-04-25T10:32:11;15.50;1.00
8565;DHT22;4320;51.498;6.556;2023-04-25T10:34:41;15.00;1.00
8565;DHT22;4320;51.498;6.556;2023-04-25T10:37:10;14.50;1.00
8565;DHT22;4320;51.498;6.556;2023-04-25T10:39:39;14.10;1.00
8565;DHT22;4320;51.498;6.556;2023-04-25T10:42:05;13.80;1.00
8565;DHT22;4320;51.498;6.556;2023-04-25T10:44:33;13.50;1.00
8565;DHT22;4320;51.498;6.556;2023-04-25T10:47:00;13.10;1.00
8565;DHT22;4320;51.498;6.556;2023-04-25T10:54:43;12.20;1.00
8565;DHT22;4320;51.498;6.556;2023-04-25T11:00:16;12.30;1.00
8565;DHT22;4320;51.498;6.556;2023-04-25T11:02:48;12.40;1.00
8565;DHT22;4320;51.498;6.556;2023-04-25T11:05:36;12.30;1.00
8565;DHT22;4320;51.498;6.556;2023-04-25T11:08:11;12.20;1.00
8565;DHT22;4320;51.498;6.556;2023-04-25T11:10:36;12.20;1.00
8565;DHT22;4320;51.498;6.556;2023-04-25T11:13:02;12.10;1.00
8565;DHT22;4320;51.498;6.556;2023-04-25T11:15:28;11.80;1.00
8565;DHT22;4320;51.498;6.556;2023-04-25T11:17:54;11.60;1.00
8565;DHT22;4320;51.498;6.556;2023-04-25T11:20:21;11.40;1.00
8565;DHT22;4320;51.498;6.556;2023-04-25T11:22:47;11.30;1.00
8565;DHT22;4320;51.498;6.556;2023-04-25T11:25:14;11.10;1.00
8565;DHT22;4320;51.498;6.556;2023-04-25T11:27:54;11.00;1.00
8565;DHT22;4320;51.498;6.556;2023-04-25T11:30:22;10.80;1.00
8565;DHT22;4320;51.498;6.556;2023-04-25T11:32:48;10.70;1.00
8565;DHT22;4320;51.498;6.556;2023-04-25T11:35:13;10.60;1.00
8565;DHT22;4320;51.498;6.556;2023-04-25T11:37:41;10.70;1.00
8565;DHT22;4320;51.498;6.556;2023-04-25T11:40:07;10.70;1.00
8565;DHT22;4320;51.498;6.556;2023-04-25T11:42:53;10.70;1.00
8565;DHT22;4320;51.498;6.556;2023-04-25T11:45:18;10.80;1.00
8565;DHT22;4320;51.498;6.556;2023-04-25T11:47:44;11.00;1.00
8565;DHT22;4320;51.498;6.556;2023-04-25T11:50:10;11.00;1.00
8565;DHT22;4320;51.498;6.556;2023-04-25T11:52:44;11.40;1.00
8565;DHT22;4320;51.498;6.556;2023-04-25T11:55:17;11.60;1.00
8565;DHT22;4320;51.498;6.556;2023-04-25T11:57:44;12.00;1.00
8565;DHT22;4320;51.498;6.556;2023-04-25T12:00:15;12.50;1.00
8565;DHT22;4320;51.498;6.556;2023-04-25T12:02:47;12.70;1.00
8565;DHT22;4320;51.498;6.556;2023-04-25T12:05:14;13.30;1.00
8565;DHT22;4320;51.498;6.556;2023-04-25T12:07:41;13.40;1.00
8565;DHT22;4320;51.498;6.556;2023-04-25T12:10:14;13.60;1.00
8565;DHT22;4320;51.498;6.556;2023-04-25T12:12:44;13.50;1.00
8565;DHT22;4320;51.498;6.556;2023-04-25T12:15:14;14.20;1.00
8565;DHT22;4320;51.498;6.556;2023-04-25T12:17:49;14.20;1.00
8565;DHT22;4320;51.498;6.556;2023-04-25T12:20:19;14.70;1.00
8565;DHT22;4320;51.498;6.556;2023-04-25T12:22:46;14.70;1.00
8565;DHT22;4320;51.498;6.556;2023-04-25T12:28:17;14.00;1.00
8565;DHT22;4320;51.498;6.556;2023-04-25T12:33:22;14.20;1.00
8565;DHT22;4320;51.498;6.556;2023-04-25T12:35:48;14.20;1.00
8565;DHT22;4320;51.498;6.556;2023-04-25T12:38:28;14.70;1.00
8565;DHT22;4320;51.498;6.556;2023-04-25T12:40:55;14.60;1.00
8565;DHT22;4320;51.498;6.556;2023-04-25T12:43:21;14.30;1.00
8565;DHT22;4320;51.498;6.556;2023-04-25T12:45:48;14.00;1.00
8565;DHT22;4320;51.498;6.556;2023-04-25T12:48:15;13.80;1.00
8565;DHT22;4320;51.498;6.556;2023-04-25T12:50:40;13.60;1.00
8565;DHT22;4320;51.498;6.556;2023-04-25T12:53:06;13.30;1.00
8565;DHT22;4320;51.498;6.556;2023-04-25T12:55:32;13.20;1.00
8565;DHT22;4320;51.498;6.556;2023-04-25T12:57:58;13.90;1.00
8565;DHT22;4320;51.498;6.556;2023-04-25T13:00:23;13.90;1.00
8565;DHT22;4320;51.498;6.556;2023-04-25T13:02:50;14.00;1.00
8565;DHT22;4320;51.498;6.556;2023-04-25T13:05:15;14.10;1.00
8565;DHT22;4320;51.498;6.556;2023-04-25T13:07:41;14.10;1.00
8565;DHT22;4320;51.498;6.556;2023-04-25T13:10:07;14.10;1.00
8565;DHT22;4320;51.498;6.556;2023-04-25T13:12:33;14.50;1.00
8565;DHT22;4320;51.498;6.556;2023-04-25T13:14:58;14.70;1.00
8565;DHT22;4320;51.498;6.556;2023-04-25T13:17:24;14.60;1.00
8565;DHT22;4320;51.498;6.556;2023-04-25T13:19:49;14.50;1.00
8565;DHT22;4320;51.498;6.556;2023-04-25T13:22:15;14.30;1.00
8565;DHT22;4320;51.498;6.556;2023-04-25T13:24:42;13.70;1.00
8565;DHT22;4320;51.498;6.556;2023-04-25T13:27:08;13.30;1.00
8565;DHT22;4320;51.498;6.556;2023-04-25T13:29:34;13.30;1.00
8565;DHT22;4320;51.498;6.556;2023-04-25T13:32:01;13.20;1.00
8565;DHT22;4320;51.498;6.556;2023-04-25T13:34:30;13.00;1.00
8565;DHT22;4320;51.498;6.556;2023-04-25T13:36:56;12.90;1.00
8565;DHT22;4320;51.498;6.556;2023-04-25T13:39:22;13.00;1.00
8565;DHT22;4320;51.498;6.556;2023-04-25T13:41:47;13.10;1.00
8565;DHT22;4320;51.498;6.556;2023-04-25T13:44:13;13.50;1.00
8565;DHT22;4320;51.498;6.556;2023-04-25T13:46:38;13.90;1.00
8565;DHT22;4320;51.498;6.556;2023-04-25T13:49:04;13.60;1.00
8565;DHT22;4320;51.498;6.556;2023-04-25T13:51:30;13.30;1.00
8565;DHT22;4320;51.498;6.556;2023-04-25T13:53:56;13.20;1.00
8565;DHT22;4320;51.498;6.556;2023-04-25T13:56:23;13.30;1.00
8565;DHT22;4320;51.498;6.556;2023-04-25T13:58:50;13.30;1.00
8565;DHT22;4320;51.498;6.556;2023-04-25T14:01:17;13.30;1.00
8565;DHT22;4320;51.498;6.556;2023-04-25T14:03:43;13.40;1.00
8565;DHT22;4320;51.498;6.556;2023-04-25T14:06:08;13.30;1.00
8565;DHT22;4320;51.498;6.556;2023-04-25T14:08:34;13.20;1.00
8565;DHT22;4320;51.498;6.556;2023-04-25T14:11:00;13.20;1.00
8565;DHT22;4320;51.498;6.556;2023-04-25T14:13:26;13.10;1.00
8565;DHT22;4320;51.498;6.556;2023-04-25T14:15:52;13.00;1.00
8565;DHT22;4320;51.498;6.556;2023-04-25T14:18:18;12.90;1.00
8565;DHT22;4320;51.498;6.556;2023-04-25T14:20:47;12.70;1.00
8565;DHT22;4320;51.498;6.556;2023-04-25T14:23:13;12.60;1.00
8565;DHT22;4320;51.498;6.556;2023-04-25T14:25:39;12.60;1.00
8565;DHT22;4320;51.498;6.556;2023-04-25T14:28:05;12.60;1.00
8565;DHT22;4320;51.498;6.556;2023-04-25T14:30:31;12.70;1.00
8565;DHT22;4320;51.498;6.556;2023-04-25T14:32:57;12.70;1.00
8565;DHT22;4320;51.498;6.556;2023-04-25T14:35:24;12.90;1.00
8565;DHT22;4320;51.498;6.556;2023-04-25T14:37:49;12.90;1.00
8565;DHT22;4320;51.498;6.556;2023-04-25T14:40:15;13.00;1.00
8565;DHT22;4320;51.498;6.556;2023-04-25T14:42:42;13.00;1.00
8565;DHT22;4320;51.498;6.556;2023-04-25T14:45:08;13.00;1.00
8565;DHT22;4320;51.498;6.556;2023-04-25T14:47:35;12.80;1.00
8565;DHT22;4320;51.498;6.556;2023-04-25T14:50:01;12.60;1.00
8565;DHT22;4320;51.498;6.556;2023-04-25T14:52:27;12.40;1.00
8565;DHT22;4320;51.498;6.556;2023-04-25T14:54:53;12.40;1.00
8565;DHT22;4320;51.498;6.556;2023-04-25T14:57:18;12.40;1.00
8565;DHT22;4320;51.498;6.556;2023-04-25T14:59:44;12.30;1.00
8565;DHT22;4320;51.498;6.556;2023-04-25T15:02:10;12.20;1.00
8565;DHT22;4320;51.498;6.556;2023-04-25T15:04:36;12.20;1.00
8565;DHT22;4320;51.498;6.556;2023-04-25T15:07:02;12.20;1.00
8565;DHT22;4320;51.498;6.556;2023-04-25T15:09:28;12.40;1.00
8565;DHT22;4320;51.498;6.556;2023-04-25T15:11:53;12.60;1.00
8565;DHT22;4320;51.498;6.556;2023-04-25T15:14:19;12.80;1.00
8565;DHT22;4320;51.498;6.556;2023-04-25T15:16:45;12.70;1.00
8565;DHT22;4320;51.498;6.556;2023-04-25T15:19:10;12.70;1.00
8565;DHT22;4320;51.498;6.556;2023-04-25T15:21:36;12.60;1.00
8565;DHT22;4320;51.498;6.556;2023-04-25T15:24:02;12.70;1.00
8565;DHT22;4320;51.498;6.556;2023-04-25T15:26:28;12.80;1.00
8565;DHT22;4320;51.498;6.556;2023-04-25T15:28:53;12.80;1.00
8565;DHT22;4320;51.498;6.556;2023-04-25T15:31:19;13.00;1.00
8565;DHT22;4320;51.498;6.556;2023-04-25T15:33:45;13.20;1.00
8565;DHT22;4320;51.498;6.556;2023-04-25T15:36:11;13.20;1.00
8565;DHT22;4320;51.498;6.556;2023-04-25T15:38:36;13.10;1.00
8565;DHT22;4320;51.498;6.556;2023-04-25T15:41:02;13.10;1.00
8565;DHT22;4320;51.498;6.556;2023-04-25T15:43:28;12.90;1.00
8565;DHT22;4320;51.498;6.556;2023-04-25T15:45:54;12.80;1.00
8565;DHT22;4320;51.498;6.556;2023-04-25T15:48:20;12.90;1.00
8565;DHT22;4320;51.498;6.556;2023-04-25T15:50:46;13.00;1.00
8565;DHT22;4320;51.498;6.556;2023-04-25T15:53:12;13.00;1.00
8565;DHT22;4320;51.498;6.556;2023-04-25T15:55:38;12.90;1.00
8565;DHT22;4320;51.498;6.556;2023-04-25T15:58:04;12.70;1.00
8565;DHT22;4320;51.498;6.556;2023-04-25T16:00:29;12.60;1.00
8565;DHT22;4320;51.498;6.556;2023-04-25T16:02:56;12.50;1.00
8565;DHT22;4320;51.498;6.556;2023-04-25T16:05:21;12.50;1.00
8565;DHT22;4320;51.498;6.556;2023-04-25T16:07:47;12.30;1.00
8565;DHT22;4320;51.498;6.556;2023-04-25T16:10:14;12.30;1.00
8565;DHT22;4320;51.498;6.556;2023-04-25T16:12:44;12.30;1.00
8565;DHT22;4320;51.498;6.556;2023-04-25T16:15:12;12.20;1.00
8565;DHT22;4320;51.498;6.556;2023-04-25T16:17:38;12.10;1.00
8565;DHT22;4320;51.498;6.556;2023-04-25T16:20:04;11.90;1.00
8565;DHT22;4320;51.498;6.556;2023-04-25T16:22:41;11.90;1.00
8565;DHT22;4320;51.498;6.556;2023-04-25T16:25:08;11.80;1.00
8565;DHT22;4320;51.498;6.556;2023-04-25T16:27:34;11.80;1.00